sensor_id;sensor_type;location;lat;lon;timestamp;P1;durP1;ratioP1;P2;durP2;ratioP2
10248;SDS011;5169;50.560;9.714;2024-03-02T00:00:59;160.90;;;52.57;;
10248;SDS011;5169;50.560;9.714;2024-03-02T00:03:24;156.37;;;52.10;;
10248;SDS011;5169;50.560;9.714;2024-03-02T00:05:50;164.07;;;52.43;;
10248;SDS011;5169;50.560;9.714;2024-03-02T00:08:22;156.27;;;52.23;;
10248;SDS011;5169;50.560;9.714;2024-03-02T00:10:51;144.00;;;50.37;;
10248;SDS011;5169;50.560;9.714;2024-03-02T00:13:22;129.03;;;49.13;;
10248;SDS011;5169;50.560;9.714;2024-03-02T00:18:20;157.23;;;51.87;;
10248;SDS011;5169;50.560;9.714;2024-03-02T00:20:56;175.87;;;54.57;;
10248;SDS011;5169;50.560;9.714;2024-03-02T00:23:23;176.03;;;54.87;;
10248;SDS011;5169;50.560;9.714;2024-03-02T00:25:50;175.13;;;54.10;;
10248;SDS011;5169;50.560;9.714;2024-03-02T00:28:21;183.63;;;56.37;;
10248;SDS011;5169;50.560;9.714;2024-03-02T00:30:54;155.17;;;52.27;;
10248;SDS011;5169;50.560;9.714;2024-03-02T00:33:34;150.03;;;51.30;;
10248;SDS011;5169;50.560;9.714;2024-03-02T00:36:01;155.53;;;53.20;;
10248;SDS011;5169;50.560;9.714;2024-03-02T00:38:28;162.33;;;53.90;;
10248;SDS011;5169;50.560;9.714;2024-03-02T00:41:08;169.07;;;55.43;;
10248;SDS011;5169;50.560;9.714;2024-03-02T00:44:01;172.90;;;55.63;;
10248;SDS011;5169;50.560;9.714;2024-03-02T00:46:38;151.23;;;52.10;;
10248;SDS011;5169;50.560;9.714;2024-03-02T00:49:11;151.83;;;53.33;;
10248;SDS011;5169;50.560;9.714;2024-03-02T00:51:46;153.37;;;53.40;;
10248;SDS011;5169;50.560;9.714;2024-03-02T00:54:15;151.33;;;53.43;;
10248;SDS011;5169;50.560;9.714;2024-03-02T00:56:49;166.57;;;55.13;;
10248;SDS011;5169;50.560;9.714;2024-03-02T00:59:15;163.47;;;55.37;;
10248;SDS011;5169;50.560;9.714;2024-03-02T01:01:41;173.83;;;56.50;;
10248;SDS011;5169;50.560;9.714;2024-03-02T01:04:07;166.10;;;54.63;;
10248;SDS011;5169;50.560;9.714;2024-03-02T01:06:33;161.73;;;54.13;;
10248;SDS011;5169;50.560;9.714;2024-03-02T01:09:00;152.83;;;53.07;;
10248;SDS011;5169;50.560;9.714;2024-03-02T01:11:26;168.07;;;54.23;;
10248;SDS011;5169;50.560;9.714;2024-03-02T01:13:51;173.47;;;54.67;;
10248;SDS011;5169;50.560;9.714;2024-03-02T01:16:17;169.47;;;54.70;;
10248;SDS011;5169;50.560;9.714;2024-03-02T01:18:43;182.33;;;56.70;;
10248;SDS011;5169;50.560;9.714;2024-03-02T01:21:09;182.13;;;57.07;;
10248;SDS011;5169;50.560;9.714;2024-03-02T01:23:34;181.87;;;57.40;;
10248;SDS011;5169;50.560;9.714;2024-03-02T01:26:02;181.77;;;56.90;;
10248;SDS011;5169;50.560;9.714;2024-03-02T01:28:28;183.07;;;57.63;;
10248;SDS011;5169;50.560;9.714;2024-03-02T01:30:54;176.73;;;56.53;;
10248;SDS011;5169;50.560;9.714;2024-03-02T01:33:19;169.73;;;55.70;;
10248;SDS011;5169;50.560;9.714;2024-03-02T01:35:46;162.03;;;54.57;;
10248;SDS011;5169;50.560;9.714;2024-03-02T01:38:12;177.87;;;57.00;;
10248;SDS011;5169;50.560;9.714;2024-03-02T01:40:38;182.30;;;57.57;;
10248;SDS011;5169;50.560;9.714;2024-03-02T01:43:05;182.30;;;57.33;;
10248;SDS011;5169;50.560;9.714;2024-03-02T01:45:31;181.50;;;57.70;;
10248;SDS011;5169;50.560;9.714;2024-03-02T01:47:59;168.67;;;55.83;;
10248;SDS011;5169;50.560;9.714;2024-03-02T01:50:26;177.97;;;56.73;;
10248;SDS011;5169;50.560;9.714;2024-03-02T01:52:52;176.87;;;57.23;;
10248;SDS011;5169;50.560;9.714;2024-03-02T01:55:17;167.87;;;55.07;;
10248;SDS011;5169;50.560;9.714;2024-03-02T01:57:43;186.53;;;57.93;;
10248;SDS011;5169;50.560;9.714;2024-03-02T02:00:12;189.90;;;59.17;;
10248;SDS011;5169;50.560;9.714;2024-03-02T02:02:38;191.40;;;59.17;;
10248;SDS011;5169;50.560;9.714;2024-03-02T02:05:04;189.60;;;59.13;;
10248;SDS011;5169;50.560;9.714;2024-03-02T02:07:30;190.13;;;58.50;;
10248;SDS011;5169;50.560;9.714;2024-03-02T02:10:00;164.30;;;56.17;;
10248;SDS011;5169;50.560;9.714;2024-03-02T02:12:28;177.10;;;56.47;;
10248;SDS011;5169;50.560;9.714;2024-03-02T02:14:54;172.67;;;57.00;;
10248;SDS011;5169;50.560;9.714;2024-03-02T02:17:19;163.20;;;55.30;;
10248;SDS011;5169;50.560;9.714;2024-03-02T02:19:47;159.90;;;54.97;;
10248;SDS011;5169;50.560;9.714;2024-03-02T02:22:13;196.03;;;59.10;;
10248;SDS011;5169;50.560;9.714;2024-03-02T02:24:41;173.13;;;56.23;;
10248;SDS011;5169;50.560;9.714;2024-03-02T02:27:10;183.57;;;57.83;;
10248;SDS011;5169;50.560;9.714;2024-03-02T02:29:36;184.03;;;57.73;;
10248;SDS011;5169;50.560;9.714;2024-03-02T02:32:04;190.27;;;59.00;;
10248;SDS011;5169;50.560;9.714;2024-03-02T02:34:35;189.87;;;58.10;;
10248;SDS011;5169;50.560;9.714;2024-03-02T02:37:00;198.13;;;60.50;;
10248;SDS011;5169;50.560;9.714;2024-03-02T02:39:26;196.67;;;59.67;;
10248;SDS011;5169;50.560;9.714;2024-03-02T02:41:52;207.33;;;60.33;;
10248;SDS011;5169;50.560;9.714;2024-03-02T02:44:17;191.47;;;57.43;;
10248;SDS011;5169;50.560;9.714;2024-03-02T02:46:43;203.50;;;60.60;;
10248;SDS011;5169;50.560;9.714;2024-03-02T02:49:08;189.17;;;57.53;;
10248;SDS011;5169;50.560;9.714;2024-03-02T02:51:34;188.83;;;58.50;;
10248;SDS011;5169;50.560;9.714;2024-03-02T02:53:59;189.93;;;57.97;;
10248;SDS011;5169;50.560;9.714;2024-03-02T02:56:25;184.93;;;57.27;;
10248;SDS011;5169;50.560;9.714;2024-03-02T02:58:51;186.67;;;57.97;;
10248;SDS011;5169;50.560;9.714;2024-03-02T03:01:18;184.60;;;57.87;;
10248;SDS011;5169;50.560;9.714;2024-03-02T03:03:44;192.40;;;58.83;;
10248;SDS011;5169;50.560;9.714;2024-03-02T03:06:11;191.17;;;58.70;;
10248;SDS011;5169;50.560;9.714;2024-03-02T03:08:37;186.40;;;58.07;;
10248;SDS011;5169;50.560;9.714;2024-03-02T03:11:03;171.40;;;56.40;;
10248;SDS011;5169;50.560;9.714;2024-03-02T03:13:29;190.47;;;58.50;;
10248;SDS011;5169;50.560;9.714;2024-03-02T03:15:58;190.53;;;57.30;;
10248;SDS011;5169;50.560;9.714;2024-03-02T03:18:24;195.13;;;58.37;;
10248;SDS011;5169;50.560;9.714;2024-03-02T03:20:50;187.50;;;56.77;;
10248;SDS011;5169;50.560;9.714;2024-03-02T03:23:15;177.30;;;55.47;;
10248;SDS011;5169;50.560;9.714;2024-03-02T03:25:44;182.40;;;56.43;;
10248;SDS011;5169;50.560;9.714;2024-03-02T03:28:10;181.20;;;56.40;;
10248;SDS011;5169;50.560;9.714;2024-03-02T03:30:38;182.17;;;56.67;;
10248;SDS011;5169;50.560;9.714;2024-03-02T03:33:05;176.87;;;55.47;;
10248;SDS011;5169;50.560;9.714;2024-03-02T03:35:33;185.37;;;57.13;;
10248;SDS011;5169;50.560;9.714;2024-03-02T03:37:59;187.10;;;56.83;;
10248;SDS011;5169;50.560;9.714;2024-03-02T03:40:25;182.13;;;55.67;;
10248;SDS011;5169;50.560;9.714;2024-03-02T03:42:53;189.73;;;56.57;;
10248;SDS011;5169;50.560;9.714;2024-03-02T03:45:21;188.07;;;56.67;;
10248;SDS011;5169;50.560;9.714;2024-03-02T03:47:47;185.23;;;56.10;;
10248;SDS011;5169;50.560;9.714;2024-03-02T03:50:12;194.57;;;57.50;;
10248;SDS011;5169;50.560;9.714;2024-03-02T03:52:38;178.30;;;55.70;;
10248;SDS011;5169;50.560;9.714;2024-03-02T03:55:04;178.07;;;55.77;;
10248;SDS011;5169;50.560;9.714;2024-03-02T03:57:30;199.17;;;58.20;;
10248;SDS011;5169;50.560;9.714;2024-03-02T03:59:56;191.67;;;56.77;;
10248;SDS011;5169;50.560;9.714;2024-03-02T04:02:22;170.03;;;53.87;;
10248;SDS011;5169;50.560;9.714;2024-03-02T04:04:49;185.37;;;56.37;;
10248;SDS011;5169;50.560;9.714;2024-03-02T04:07:15;182.80;;;55.53;;
10248;SDS011;5169;50.560;9.714;2024-03-02T04:09:40;177.43;;;55.13;;
10248;SDS011;5169;50.560;9.714;2024-03-02T04:12:06;176.53;;;54.50;;
10248;SDS011;5169;50.560;9.714;2024-03-02T04:14:32;178.37;;;55.47;;
10248;SDS011;5169;50.560;9.714;2024-03-02T04:16:57;177.03;;;54.07;;
10248;SDS011;5169;50.560;9.714;2024-03-02T04:19:25;180.33;;;53.97;;
10248;SDS011;5169;50.560;9.714;2024-03-02T04:21:50;173.93;;;53.90;;
10248;SDS011;5169;50.560;9.714;2024-03-02T04:24:18;169.43;;;53.93;;
10248;SDS011;5169;50.560;9.714;2024-03-02T04:26:44;158.40;;;52.43;;
10248;SDS011;5169;50.560;9.714;2024-03-02T04:29:09;162.10;;;52.53;;
10248;SDS011;5169;50.560;9.714;2024-03-02T04:31:35;162.33;;;52.93;;
10248;SDS011;5169;50.560;9.714;2024-03-02T04:34:02;159.40;;;52.77;;
10248;SDS011;5169;50.560;9.714;2024-03-02T04:36:28;152.30;;;51.20;;
10248;SDS011;5169;50.560;9.714;2024-03-02T04:38:54;148.60;;;50.37;;
10248;SDS011;5169;50.560;9.714;2024-03-02T04:41:20;165.53;;;52.30;;
10248;SDS011;5169;50.560;9.714;2024-03-02T04:43:45;170.27;;;52.20;;
10248;SDS011;5169;50.560;9.714;2024-03-02T04:46:11;179.67;;;54.63;;
10248;SDS011;5169;50.560;9.714;2024-03-02T04:48:36;181.70;;;55.47;;
10248;SDS011;5169;50.560;9.714;2024-03-02T04:51:04;175.33;;;54.13;;
10248;SDS011;5169;50.560;9.714;2024-03-02T04:53:32;185.57;;;55.73;;
10248;SDS011;5169;50.560;9.714;2024-03-02T04:56:00;184.93;;;54.53;;
10248;SDS011;5169;50.560;9.714;2024-03-02T04:59:00;180.80;;;53.73;;
10248;SDS011;5169;50.560;9.714;2024-03-02T05:01:26;183.40;;;53.20;;
10248;SDS011;5169;50.560;9.714;2024-03-02T05:03:52;157.77;;;50.97;;
10248;SDS011;5169;50.560;9.714;2024-03-02T05:06:17;167.73;;;52.93;;
10248;SDS011;5169;50.560;9.714;2024-03-02T05:08:43;173.30;;;52.73;;
10248;SDS011;5169;50.560;9.714;2024-03-02T05:11:11;173.73;;;53.33;;
10248;SDS011;5169;50.560;9.714;2024-03-02T05:14:11;165.37;;;52.10;;
10248;SDS011;5169;50.560;9.714;2024-03-02T05:16:39;163.80;;;51.37;;
10248;SDS011;5169;50.560;9.714;2024-03-02T05:19:05;162.00;;;50.73;;
10248;SDS011;5169;50.560;9.714;2024-03-02T05:21:31;164.30;;;51.53;;
10248;SDS011;5169;50.560;9.714;2024-03-02T05:24:00;164.23;;;51.37;;
10248;SDS011;5169;50.560;9.714;2024-03-02T05:26:26;159.87;;;51.17;;
10248;SDS011;5169;50.560;9.714;2024-03-02T05:28:51;171.10;;;52.30;;
10248;SDS011;5169;50.560;9.714;2024-03-02T05:31:18;167.60;;;51.90;;
10248;SDS011;5169;50.560;9.714;2024-03-02T05:33:43;170.03;;;52.40;;
10248;SDS011;5169;50.560;9.714;2024-03-02T05:36:09;171.23;;;51.83;;
10248;SDS011;5169;50.560;9.714;2024-03-02T05:38:35;177.43;;;53.67;;
10248;SDS011;5169;50.560;9.714;2024-03-02T05:41:00;169.80;;;52.47;;
10248;SDS011;5169;50.560;9.714;2024-03-02T05:43:26;141.50;;;48.30;;
10248;SDS011;5169;50.560;9.714;2024-03-02T05:45:52;130.47;;;47.20;;
10248;SDS011;5169;50.560;9.714;2024-03-02T05:48:17;131.67;;;47.00;;
10248;SDS011;5169;50.560;9.714;2024-03-02T05:50:43;124.30;;;45.87;;
10248;SDS011;5169;50.560;9.714;2024-03-02T05:53:09;129.43;;;47.07;;
10248;SDS011;5169;50.560;9.714;2024-03-02T05:55:34;120.33;;;45.43;;
10248;SDS011;5169;50.560;9.714;2024-03-02T05:58:00;123.43;;;46.13;;
10248;SDS011;5169;50.560;9.714;2024-03-02T06:00:31;130.53;;;47.43;;
10248;SDS011;5169;50.560;9.714;2024-03-02T06:02:57;126.23;;;46.20;;
10248;SDS011;5169;50.560;9.714;2024-03-02T06:05:25;131.23;;;47.37;;
10248;SDS011;5169;50.560;9.714;2024-03-02T06:07:52;137.27;;;48.00;;
10248;SDS011;5169;50.560;9.714;2024-03-02T06:10:20;132.37;;;47.83;;
10248;SDS011;5169;50.560;9.714;2024-03-02T06:12:46;134.17;;;47.87;;
10248;SDS011;5169;50.560;9.714;2024-03-02T06:15:11;146.90;;;49.93;;
10248;SDS011;5169;50.560;9.714;2024-03-02T06:17:39;144.27;;;49.07;;
10248;SDS011;5169;50.560;9.714;2024-03-02T06:20:05;149.80;;;50.33;;
10248;SDS011;5169;50.560;9.714;2024-03-02T06:22:35;138.33;;;48.17;;
10248;SDS011;5169;50.560;9.714;2024-03-02T06:25:01;140.80;;;48.17;;
10248;SDS011;5169;50.560;9.714;2024-03-02T06:27:29;147.20;;;49.27;;
10248;SDS011;5169;50.560;9.714;2024-03-02T06:29:54;148.17;;;50.07;;
10248;SDS011;5169;50.560;9.714;2024-03-02T06:32:20;141.77;;;48.17;;
10248;SDS011;5169;50.560;9.714;2024-03-02T06:34:45;162.80;;;51.63;;
10248;SDS011;5169;50.560;9.714;2024-03-02T06:37:13;172.97;;;52.80;;
10248;SDS011;5169;50.560;9.714;2024-03-02T06:39:41;180.53;;;53.17;;
10248;SDS011;5169;50.560;9.714;2024-03-02T06:42:07;165.60;;;51.00;;
10248;SDS011;5169;50.560;9.714;2024-03-02T06:44:32;162.47;;;50.50;;
10248;SDS011;5169;50.560;9.714;2024-03-02T06:47:02;168.97;;;51.97;;
10248;SDS011;5169;50.560;9.714;2024-03-02T06:49:29;182.67;;;52.97;;
10248;SDS011;5169;50.560;9.714;2024-03-02T06:51:54;177.77;;;52.47;;
10248;SDS011;5169;50.560;9.714;2024-03-02T06:54:20;175.73;;;52.23;;
10248;SDS011;5169;50.560;9.714;2024-03-02T06:56:48;147.73;;;48.90;;
10248;SDS011;5169;50.560;9.714;2024-03-02T06:59:14;156.73;;;50.20;;
10248;SDS011;5169;50.560;9.714;2024-03-02T07:01:42;159.33;;;50.67;;
10248;SDS011;5169;50.560;9.714;2024-03-02T07:04:08;162.20;;;50.57;;
10248;SDS011;5169;50.560;9.714;2024-03-02T07:06:34;162.30;;;50.33;;
10248;SDS011;5169;50.560;9.714;2024-03-02T07:09:01;164.10;;;50.93;;
10248;SDS011;5169;50.560;9.714;2024-03-02T07:11:27;183.17;;;52.93;;
10248;SDS011;5169;50.560;9.714;2024-03-02T07:13:53;175.30;;;52.20;;
10248;SDS011;5169;50.560;9.714;2024-03-02T07:16:18;169.67;;;52.33;;
10248;SDS011;5169;50.560;9.714;2024-03-02T07:18:55;175.73;;;52.60;;
10248;SDS011;5169;50.560;9.714;2024-03-02T07:21:23;169.57;;;52.07;;
10248;SDS011;5169;50.560;9.714;2024-03-02T07:23:49;171.60;;;52.90;;
10248;SDS011;5169;50.560;9.714;2024-03-02T07:26:15;171.87;;;53.57;;
10248;SDS011;5169;50.560;9.714;2024-03-02T07:28:43;167.30;;;53.10;;
10248;SDS011;5169;50.560;9.714;2024-03-02T07:31:10;164.20;;;52.93;;
10248;SDS011;5169;50.560;9.714;2024-03-02T07:33:38;44.77;;;29.90;;
10248;SDS011;5169;50.560;9.714;2024-03-02T07:36:04;13.10;;;11.80;;
10248;SDS011;5169;50.560;9.714;2024-03-02T07:38:30;12.07;;;8.60;;
10248;SDS011;5169;50.560;9.714;2024-03-02T07:40:57;16.37;;;13.03;;
10248;SDS011;5169;50.560;9.714;2024-03-02T07:43:25;12.13;;;8.30;;
10248;SDS011;5169;50.560;9.714;2024-03-02T07:45:51;12.17;;;8.70;;
10248;SDS011;5169;50.560;9.714;2024-03-02T07:48:19;12.43;;;8.17;;
10248;SDS011;5169;50.560;9.714;2024-03-02T07:50:47;13.60;;;9.30;;
10248;SDS011;5169;50.560;9.714;2024-03-02T07:53:12;14.17;;;9.87;;
10248;SDS011;5169;50.560;9.714;2024-03-02T07:55:39;12.63;;;9.53;;
10248;SDS011;5169;50.560;9.714;2024-03-02T07:58:07;12.83;;;9.17;;
10248;SDS011;5169;50.560;9.714;2024-03-02T08:00:32;12.63;;;8.70;;
10248;SDS011;5169;50.560;9.714;2024-03-02T08:02:58;13.17;;;9.07;;
10248;SDS011;5169;50.560;9.714;2024-03-02T08:05:24;12.87;;;9.20;;
10248;SDS011;5169;50.560;9.714;2024-03-02T08:07:50;12.43;;;8.97;;
10248;SDS011;5169;50.560;9.714;2024-03-02T08:10:18;13.60;;;8.97;;
10248;SDS011;5169;50.560;9.714;2024-03-02T08:12:44;13.33;;;8.53;;
10248;SDS011;5169;50.560;9.714;2024-03-02T08:15:10;11.23;;;8.53;;
10248;SDS011;5169;50.560;9.714;2024-03-02T08:17:37;12.77;;;8.57;;
10248;SDS011;5169;50.560;9.714;2024-03-02T08:20:12;12.90;;;8.83;;
10248;SDS011;5169;50.560;9.714;2024-03-02T08:22:38;12.57;;;9.13;;
10248;SDS011;5169;50.560;9.714;2024-03-02T08:25:06;12.13;;;8.63;;
10248;SDS011;5169;50.560;9.714;2024-03-02T08:27:33;14.87;;;9.30;;
10248;SDS011;5169;50.560;9.714;2024-03-02T08:30:03;12.50;;;8.80;;
10248;SDS011;5169;50.560;9.714;2024-03-02T08:32:31;12.53;;;8.70;;
10248;SDS011;5169;50.560;9.714;2024-03-02T08:34:57;14.27;;;9.23;;
10248;SDS011;5169;50.560;9.714;2024-03-02T08:37:22;12.00;;;8.40;;
10248;SDS011;5169;50.560;9.714;2024-03-02T08:39:48;13.23;;;8.80;;
10248;SDS011;5169;50.560;9.714;2024-03-02T08:42:16;11.50;;;8.17;;
10248;SDS011;5169;50.560;9.714;2024-03-02T08:44:44;13.03;;;8.07;;
10248;SDS011;5169;50.560;9.714;2024-03-02T08:47:09;14.67;;;8.50;;
10248;SDS011;5169;50.560;9.714;2024-03-02T08:49:37;12.13;;;8.97;;
10248;SDS011;5169;50.560;9.714;2024-03-02T08:52:02;12.53;;;8.60;;
10248;SDS011;5169;50.560;9.714;2024-03-02T08:54:28;12.33;;;8.97;;
10248;SDS011;5169;50.560;9.714;2024-03-02T08:56:54;14.00;;;9.17;;
10248;SDS011;5169;50.560;9.714;2024-03-02T08:59:20;12.53;;;8.90;;
10248;SDS011;5169;50.560;9.714;2024-03-02T09:01:45;11.53;;;7.97;;
10248;SDS011;5169;50.560;9.714;2024-03-02T09:04:11;12.83;;;8.80;;
10248;SDS011;5169;50.560;9.714;2024-03-02T09:06:39;12.43;;;8.67;;
10248;SDS011;5169;50.560;9.714;2024-03-02T09:09:05;12.43;;;8.87;;
10248;SDS011;5169;50.560;9.714;2024-03-02T09:11:31;12.10;;;8.83;;
10248;SDS011;5169;50.560;9.714;2024-03-02T09:13:59;12.13;;;7.90;;
10248;SDS011;5169;50.560;9.714;2024-03-02T09:16:27;11.70;;;7.90;;
10248;SDS011;5169;50.560;9.714;2024-03-02T09:18:56;11.43;;;8.20;;
10248;SDS011;5169;50.560;9.714;2024-03-02T09:21:22;11.67;;;8.43;;
10248;SDS011;5169;50.560;9.714;2024-03-02T09:23:48;11.87;;;7.37;;
10248;SDS011;5169;50.560;9.714;2024-03-02T09:26:14;12.13;;;8.10;;
10248;SDS011;5169;50.560;9.714;2024-03-02T09:28:43;12.60;;;8.13;;
10248;SDS011;5169;50.560;9.714;2024-03-02T09:31:09;12.00;;;8.07;;
10248;SDS011;5169;50.560;9.714;2024-03-02T09:33:34;12.27;;;7.70;;
10248;SDS011;5169;50.560;9.714;2024-03-02T09:36:04;10.10;;;7.23;;
10248;SDS011;5169;50.560;9.714;2024-03-02T09:38:31;9.97;;;6.90;;
10248;SDS011;5169;50.560;9.714;2024-03-02T09:40:59;11.47;;;7.40;;
10248;SDS011;5169;50.560;9.714;2024-03-02T09:43:29;10.63;;;7.57;;
10248;SDS011;5169;50.560;9.714;2024-03-02T09:45:55;11.50;;;7.80;;
10248;SDS011;5169;50.560;9.714;2024-03-02T09:48:23;9.47;;;7.03;;
10248;SDS011;5169;50.560;9.714;2024-03-02T09:50:48;11.57;;;7.70;;
10248;SDS011;5169;50.560;9.714;2024-03-02T09:53:14;9.30;;;7.20;;
10248;SDS011;5169;50.560;9.714;2024-03-02T09:55:41;11.37;;;8.63;;
10248;SDS011;5169;50.560;9.714;2024-03-02T09:58:13;11.30;;;8.33;;
10248;SDS011;5169;50.560;9.714;2024-03-02T10:00:39;10.33;;;7.17;;
10248;SDS011;5169;50.560;9.714;2024-03-02T10:03:05;10.13;;;7.47;;
10248;SDS011;5169;50.560;9.714;2024-03-02T10:05:38;10.60;;;7.43;;
10248;SDS011;5169;50.560;9.714;2024-03-02T10:08:06;10.03;;;7.10;;
10248;SDS011;5169;50.560;9.714;2024-03-02T10:10:39;11.00;;;7.10;;
10248;SDS011;5169;50.560;9.714;2024-03-02T10:13:07;10.17;;;7.23;;
10248;SDS011;5169;50.560;9.714;2024-03-02T10:15:33;9.57;;;7.47;;
10248;SDS011;5169;50.560;9.714;2024-03-02T10:17:59;9.97;;;7.37;;
10248;SDS011;5169;50.560;9.714;2024-03-02T10:20:25;9.77;;;6.87;;
10248;SDS011;5169;50.560;9.714;2024-03-02T10:22:56;10.17;;;6.97;;
10248;SDS011;5169;50.560;9.714;2024-03-02T10:25:35;9.17;;;6.90;;
10248;SDS011;5169;50.560;9.714;2024-03-02T10:28:01;8.37;;;6.40;;
10248;SDS011;5169;50.560;9.714;2024-03-02T10:30:27;9.43;;;6.20;;
10248;SDS011;5169;50.560;9.714;2024-03-02T10:32:53;9.10;;;6.37;;
10248;SDS011;5169;50.560;9.714;2024-03-02T10:35:20;9.20;;;6.33;;
10248;SDS011;5169;50.560;9.714;2024-03-02T10:37:52;7.57;;;6.40;;
10248;SDS011;5169;50.560;9.714;2024-03-02T10:40:23;8.50;;;5.80;;
10248;SDS011;5169;50.560;9.714;2024-03-02T10:42:49;7.67;;;5.70;;
10248;SDS011;5169;50.560;9.714;2024-03-02T10:45:16;6.27;;;5.47;;
10248;SDS011;5169;50.560;9.714;2024-03-02T10:47:44;7.33;;;5.43;;
10248;SDS011;5169;50.560;9.714;2024-03-02T10:50:14;9.60;;;6.13;;
10248;SDS011;5169;50.560;9.714;2024-03-02T10:52:42;6.90;;;5.17;;
10248;SDS011;5169;50.560;9.714;2024-03-02T10:55:10;9.23;;;5.37;;
10248;SDS011;5169;50.560;9.714;2024-03-02T10:57:53;7.40;;;5.10;;
10248;SDS011;5169;50.560;9.714;2024-03-02T11:00:21;7.27;;;4.70;;
10248;SDS011;5169;50.560;9.714;2024-03-02T11:02:56;5.87;;;4.63;;
10248;SDS011;5169;50.560;9.714;2024-03-02T11:05:26;5.27;;;4.63;;
10248;SDS011;5169;50.560;9.714;2024-03-02T11:07:56;4.93;;;4.07;;
10248;SDS011;5169;50.560;9.714;2024-03-02T11:10:30;11.47;;;4.47;;
10248;SDS011;5169;50.560;9.714;2024-03-02T11:13:22;4.00;;;3.27;;
10248;SDS011;5169;50.560;9.714;2024-03-02T11:15:57;4.80;;;3.13;;
10248;SDS011;5169;50.560;9.714;2024-03-02T11:18:28;4.77;;;3.93;;
10248;SDS011;5169;50.560;9.714;2024-03-02T11:20:54;3.95;;;3.30;;
10248;SDS011;5169;50.560;9.714;2024-03-02T11:23:21;3.95;;;3.35;;
10248;SDS011;5169;50.560;9.714;2024-03-02T11:26:16;4.15;;;3.53;;
10248;SDS011;5169;50.560;9.714;2024-03-02T11:28:45;3.53;;;2.88;;
10248;SDS011;5169;50.560;9.714;2024-03-02T11:31:13;4.80;;;2.90;;
10248;SDS011;5169;50.560;9.714;2024-03-02T11:33:39;4.45;;;3.70;;
10248;SDS011;5169;50.560;9.714;2024-03-02T11:36:07;6.17;;;4.40;;
10248;SDS011;5169;50.560;9.714;2024-03-02T11:38:34;4.20;;;3.27;;
10248;SDS011;5169;50.560;9.714;2024-03-02T11:41:01;3.80;;;3.17;;
10248;SDS011;5169;50.560;9.714;2024-03-02T11:43:28;5.00;;;3.40;;
10248;SDS011;5169;50.560;9.714;2024-03-02T11:45:58;5.33;;;2.67;;
10248;SDS011;5169;50.560;9.714;2024-03-02T11:48:32;3.50;;;2.47;;
10248;SDS011;5169;50.560;9.714;2024-03-02T11:51:00;2.77;;;2.10;;
10248;SDS011;5169;50.560;9.714;2024-03-02T11:53:28;3.10;;;2.20;;
10248;SDS011;5169;50.560;9.714;2024-03-02T11:55:56;3.20;;;2.33;;
10248;SDS011;5169;50.560;9.714;2024-03-02T11:58:23;2.30;;;2.10;;
10248;SDS011;5169;50.560;9.714;2024-03-02T12:00:53;3.10;;;2.40;;
10248;SDS011;5169;50.560;9.714;2024-03-02T12:03:24;3.47;;;2.47;;
10248;SDS011;5169;50.560;9.714;2024-03-02T12:05:51;2.47;;;2.10;;
10248;SDS011;5169;50.560;9.714;2024-03-02T12:08:20;2.10;;;1.80;;
10248;SDS011;5169;50.560;9.714;2024-03-02T12:10:56;2.57;;;2.20;;
10248;SDS011;5169;50.560;9.714;2024-03-02T12:13:26;2.63;;;1.80;;
10248;SDS011;5169;50.560;9.714;2024-03-02T12:15:55;2.67;;;1.77;;
10248;SDS011;5169;50.560;9.714;2024-03-02T12:18:25;2.80;;;1.83;;
10248;SDS011;5169;50.560;9.714;2024-03-02T12:20:53;3.37;;;1.80;;
10248;SDS011;5169;50.560;9.714;2024-03-02T12:23:22;2.93;;;1.77;;
10248;SDS011;5169;50.560;9.714;2024-03-02T12:25:48;2.20;;;1.87;;
10248;SDS011;5169;50.560;9.714;2024-03-02T12:28:13;2.40;;;2.00;;
10248;SDS011;5169;50.560;9.714;2024-03-02T12:30:39;2.37;;;1.90;;
10248;SDS011;5169;50.560;9.714;2024-03-02T12:33:05;2.30;;;1.63;;
10248;SDS011;5169;50.560;9.714;2024-03-02T12:35:35;3.63;;;2.27;;
10248;SDS011;5169;50.560;9.714;2024-03-02T12:38:03;1.97;;;1.60;;
10248;SDS011;5169;50.560;9.714;2024-03-02T12:40:31;2.07;;;1.63;;
10248;SDS011;5169;50.560;9.714;2024-03-02T12:42:57;2.72;;;1.70;;
10248;SDS011;5169;50.560;9.714;2024-03-02T12:45:28;2.08;;;1.60;;
10248;SDS011;5169;50.560;9.714;2024-03-02T12:47:56;1.90;;;1.70;;
10248;SDS011;5169;50.560;9.714;2024-03-02T12:50:21;1.53;;;1.43;;
10248;SDS011;5169;50.560;9.714;2024-03-02T12:52:53;2.60;;;1.73;;
10248;SDS011;5169;50.560;9.714;2024-03-02T12:55:20;1.65;;;1.35;;
10248;SDS011;5169;50.560;9.714;2024-03-02T12:57:56;1.70;;;1.50;;
10248;SDS011;5169;50.560;9.714;2024-03-02T13:00:25;2.25;;;1.80;;
10248;SDS011;5169;50.560;9.714;2024-03-02T13:02:58;2.47;;;1.40;;
10248;SDS011;5169;50.560;9.714;2024-03-02T13:05:29;1.57;;;1.20;;
10248;SDS011;5169;50.560;9.714;2024-03-02T13:07:58;1.40;;;1.30;;
10248;SDS011;5169;50.560;9.714;2024-03-02T13:10:28;1.70;;;1.30;;
10248;SDS011;5169;50.560;9.714;2024-03-02T13:12:54;1.90;;;1.70;;
10248;SDS011;5169;50.560;9.714;2024-03-02T13:15:21;1.73;;;1.40;;
10248;SDS011;5169;50.560;9.714;2024-03-02T13:17:48;1.33;;;1.23;;
10248;SDS011;5169;50.560;9.714;2024-03-02T13:20:15;1.30;;;1.20;;
10248;SDS011;5169;50.560;9.714;2024-03-02T13:22:45;1.37;;;1.17;;
10248;SDS011;5169;50.560;9.714;2024-03-02T13:25:10;3.83;;;1.50;;
10248;SDS011;5169;50.560;9.714;2024-03-02T13:27:36;3.43;;;2.33;;
10248;SDS011;5169;50.560;9.714;2024-03-02T13:30:04;3.63;;;3.13;;
10248;SDS011;5169;50.560;9.714;2024-03-02T13:32:31;5.73;;;3.50;;
10248;SDS011;5169;50.560;9.714;2024-03-02T13:34:56;5.37;;;3.70;;
10248;SDS011;5169;50.560;9.714;2024-03-02T13:37:25;4.17;;;3.37;;
10248;SDS011;5169;50.560;9.714;2024-03-02T13:39:50;4.40;;;3.30;;
10248;SDS011;5169;50.560;9.714;2024-03-02T13:42:16;3.73;;;3.30;;
10248;SDS011;5169;50.560;9.714;2024-03-02T13:44:45;4.80;;;3.07;;
10248;SDS011;5169;50.560;9.714;2024-03-02T13:47:15;4.40;;;4.00;;
10248;SDS011;5169;50.560;9.714;2024-03-02T13:49:44;5.53;;;3.97;;
10248;SDS011;5169;50.560;9.714;2024-03-02T13:52:10;4.97;;;4.03;;
10248;SDS011;5169;50.560;9.714;2024-03-02T13:54:41;5.07;;;4.10;;
10248;SDS011;5169;50.560;9.714;2024-03-02T13:57:13;4.53;;;3.80;;
10248;SDS011;5169;50.560;9.714;2024-03-02T13:59:42;4.93;;;3.60;;
10248;SDS011;5169;50.560;9.714;2024-03-02T14:02:08;5.37;;;3.53;;
10248;SDS011;5169;50.560;9.714;2024-03-02T14:04:36;6.03;;;4.23;;
10248;SDS011;5169;50.560;9.714;2024-03-02T14:07:03;4.17;;;3.43;;
10248;SDS011;5169;50.560;9.714;2024-03-02T14:09:32;5.30;;;4.10;;
10248;SDS011;5169;50.560;9.714;2024-03-02T14:12:00;5.73;;;4.00;;
10248;SDS011;5169;50.560;9.714;2024-03-02T14:14:26;5.00;;;3.83;;
10248;SDS011;5169;50.560;9.714;2024-03-02T14:16:52;6.60;;;4.37;;
10248;SDS011;5169;50.560;9.714;2024-03-02T14:19:25;4.67;;;3.80;;
10248;SDS011;5169;50.560;9.714;2024-03-02T14:21:51;6.00;;;4.03;;
10248;SDS011;5169;50.560;9.714;2024-03-02T14:24:19;4.87;;;3.40;;
10248;SDS011;5169;50.560;9.714;2024-03-02T14:26:48;5.40;;;4.10;;
10248;SDS011;5169;50.560;9.714;2024-03-02T14:29:16;6.93;;;4.90;;
10248;SDS011;5169;50.560;9.714;2024-03-02T14:31:43;5.07;;;4.33;;
10248;SDS011;5169;50.560;9.714;2024-03-02T14:34:13;5.53;;;3.87;;
10248;SDS011;5169;50.560;9.714;2024-03-02T14:36:44;6.10;;;3.83;;
10248;SDS011;5169;50.560;9.714;2024-03-02T14:39:10;4.60;;;3.60;;
10248;SDS011;5169;50.560;9.714;2024-03-02T14:41:36;4.00;;;3.30;;
10248;SDS011;5169;50.560;9.714;2024-03-02T14:44:05;4.43;;;3.90;;